createdAt,value
2017-09-02T00:00:17.428Z,1019.2
2017-09-02T00:01:18.807Z,1019.1
2017-09-02T00:02:20.211Z,1019.1
2017-09-02T00:03:21.584Z,1019.1
2017-09-02T00:04:22.992Z,1019.1
2017-09-02T00:05:24.359Z,1019.1
2017-09-02T00:06:25.767Z,1019.1
2017-09-02T00:07:27.144Z,1019.1
2017-09-02T00:08:28.558Z,1019.1
2017-09-02T00:09:29.925Z,1019.0
2017-09-02T00:10:31.337Z,1019.0
2017-09-02T00:11:32.717Z,1019.0
2017-09-02T00:12:34.106Z,1019.0
2017-09-02T00:13:35.473Z,1019.0
2017-09-02T00:14:36.885Z,1019.0
2017-09-02T00:15:38.258Z,1019.0
2017-09-02T00:16:39.660Z,1019.1
2017-09-02T00:17:41.038Z,1019.0
2017-09-02T00:18:42.452Z,1019.0
2017-09-02T00:19:43.820Z,1019.0
2017-09-02T00:20:45.223Z,1019.0
2017-09-02T00:21:46.597Z,1019.0
2017-09-02T00:22:48.005Z,1019.0
2017-09-02T00:23:49.377Z,1019.0
2017-09-02T00:24:50.809Z,1019.1
2017-09-02T00:25:52.192Z,1019.0
2017-09-02T00:26:53.665Z,1019.0
2017-09-02T00:27:55.040Z,1019.0
2017-09-02T00:28:56.450Z,1019.1
2017-09-02T00:29:57.822Z,1019.1
2017-09-02T00:30:59.224Z,1019.1
2017-09-02T00:32:00.598Z,1019.1
2017-09-02T00:33:01.997Z,1019.1
2017-09-02T00:34:03.377Z,1019.1
2017-09-02T00:35:04.785Z,1019.1
2017-09-02T00:36:06.159Z,1019.1
2017-09-02T00:37:07.544Z,1019.1
2017-09-02T00:38:08.928Z,1019.1
2017-09-02T00:39:10.344Z,1019.1
2017-09-02T00:40:11.715Z,1019.1
2017-09-02T00:41:13.122Z,1019.1
2017-09-02T00:42:14.494Z,1019.0
2017-09-02T00:43:15.896Z,1019.1
2017-09-02T00:44:17.282Z,1019.1
2017-09-02T00:45:18.675Z,1019.0
2017-09-02T00:46:20.063Z,1019.0
2017-09-02T00:47:21.462Z,1019.0
2017-09-02T00:48:22.838Z,1019.0
2017-09-02T00:49:24.238Z,1019.0
2017-09-02T00:50:25.615Z,1019.0
2017-09-02T00:51:27.025Z,1019.1
2017-09-02T00:52:28.394Z,1019.0
2017-09-02T00:53:29.803Z,1019.0
2017-09-02T00:54:31.258Z,1019.1
2017-09-02T00:55:32.617Z,1019.0
2017-09-02T00:56:34.023Z,1019.0
2017-09-02T00:57:35.396Z,1019.1
2017-09-02T00:58:36.803Z,1019.1
2017-09-02T00:59:38.180Z,1019.1
2017-09-02T01:00:39.585Z,1019.1
2017-09-02T01:01:40.960Z,1019.1
2017-09-02T01:02:42.366Z,1019.1
2017-09-02T01:03:43.734Z,1019.1
2017-09-02T01:04:45.141Z,1019.1
2017-09-02T01:05:46.512Z,1019.1
2017-09-02T01:06:47.930Z,1019.1
2017-09-02T01:07:49.359Z,1019.1
2017-09-02T01:08:50.832Z,1019.1
2017-09-02T01:09:52.211Z,1019.1
2017-09-02T01:10:53.593Z,1019.1
2017-09-02T01:11:54.976Z,1019.1
2017-09-02T01:12:56.470Z,1019.1
2017-09-02T01:13:57.843Z,1019.1
2017-09-02T01:14:59.270Z,1019.1
2017-09-02T01:16:00.648Z,1019.1
2017-09-02T01:17:02.134Z,1019.1
2017-09-02T01:18:03.518Z,1019.1
2017-09-02T01:19:05.009Z,1019.1
2017-09-02T01:20:06.385Z,1019.1
2017-09-02T01:21:07.788Z,1019.1
2017-09-02T01:22:09.172Z,1019.2
2017-09-02T01:23:10.567Z,1019.1
2017-09-02T01:24:11.941Z,1019.1
2017-09-02T01:25:13.381Z,1019.1
2017-09-02T01:26:14.785Z,1019.1
2017-09-02T01:27:16.237Z,1019.1
2017-09-02T01:28:17.609Z,1019.1
2017-09-02T01:29:19.008Z,1019.1
2017-09-02T01:30:20.390Z,1019.1
2017-09-02T01:31:21.836Z,1019.1
2017-09-02T01:32:23.210Z,1019.1
2017-09-02T01:33:24.697Z,1019.1
2017-09-02T01:34:26.090Z,1019.1
2017-09-02T01:35:27.556Z,1019.1
2017-09-02T01:36:28.938Z,1019.1
2017-09-02T01:37:30.338Z,1019.1
2017-09-02T01:38:31.713Z,1019.1
2017-09-02T01:39:33.139Z,1019.1
2017-09-02T01:40:34.528Z,1019.1
2017-09-02T01:41:35.992Z,1019.1
2017-09-02T01:42:37.356Z,1019.0
2017-09-02T01:43:38.773Z,1019.0
2017-09-02T01:44:40.147Z,1019.1
2017-09-02T01:45:41.557Z,1019.1
2017-09-02T01:46:42.939Z,1019.0
2017-09-02T01:47:44.330Z,1019.1
2017-09-02T01:48:45.703Z,1019.0
2017-09-02T01:49:47.112Z,1019.0
2017-09-02T01:50:48.486Z,1019.0
2017-09-02T01:51:49.891Z,1019.1
2017-09-02T01:52:51.264Z,1019.0
2017-09-02T01:53:52.687Z,1019.1
2017-09-02T01:54:54.054Z,1019.1
2017-09-02T01:55:55.450Z,1019.1
2017-09-02T01:56:56.846Z,1019.1
2017-09-02T01:57:58.332Z,1019.1
2017-09-02T01:58:59.707Z,1019.1
2017-09-02T02:00:01.111Z,1019.0
2017-09-02T02:01:02.486Z,1019.1
2017-09-02T02:02:03.891Z,1019.1
2017-09-02T02:03:05.289Z,1019.1
2017-09-02T02:04:06.680Z,1019.1
2017-09-02T02:05:08.054Z,1019.1
2017-09-02T02:06:09.459Z,1019.1
2017-09-02T02:07:10.830Z,1019.1
2017-09-02T02:08:12.232Z,1019.1
2017-09-02T02:09:13.609Z,1019.1
2017-09-02T02:10:15.011Z,1019.1
2017-09-02T02:11:16.383Z,1019.1
2017-09-02T02:12:17.797Z,1019.1
2017-09-02T02:13:19.173Z,1019.1
2017-09-02T02:14:20.573Z,1019.1
2017-09-02T02:15:21.945Z,1019.1
2017-09-02T02:16:23.352Z,1019.0
2017-09-02T02:17:24.727Z,1019.0
2017-09-02T02:18:26.132Z,1019.1
2017-09-02T02:19:27.508Z,1019.0
2017-09-02T02:20:28.910Z,1019.0
2017-09-02T02:21:30.280Z,1019.1
2017-09-02T02:22:31.688Z,1019.0
2017-09-02T02:23:33.065Z,1019.0
2017-09-02T02:24:34.471Z,1019.1
2017-09-02T02:25:35.949Z,1019.0
2017-09-02T02:26:37.343Z,1019.1
2017-09-02T02:27:38.748Z,1019.0
2017-09-02T02:28:40.232Z,1019.1
2017-09-02T02:29:41.605Z,1019.1
2017-09-02T02:30:43.016Z,1019.1
2017-09-02T02:31:44.390Z,1019.0
2017-09-02T02:32:45.789Z,1019.1
2017-09-02T02:33:47.164Z,1019.0
2017-09-02T02:34:48.568Z,1019.0
2017-09-02T02:35:49.940Z,1019.0
2017-09-02T02:36:51.348Z,1019.0
2017-09-02T02:37:52.732Z,1019.0
2017-09-02T02:38:54.131Z,1018.9
2017-09-02T02:39:55.508Z,1019.0
2017-09-02T02:40:56.911Z,1018.9
2017-09-02T02:41:58.286Z,1019.0
2017-09-02T02:42:59.693Z,1019.0
2017-09-02T02:44:01.066Z,1018.9
2017-09-02T02:45:02.486Z,1019.0
2017-09-02T02:46:03.856Z,1018.9
2017-09-02T02:47:05.247Z,1019.0
2017-09-02T02:48:06.623Z,1018.9
2017-09-02T02:49:08.028Z,1018.9
2017-09-02T02:50:09.416Z,1018.9
2017-09-02T02:51:10.808Z,1018.9
2017-09-02T02:52:12.186Z,1018.9
2017-09-02T02:53:13.591Z,1018.9
2017-09-02T02:54:14.966Z,1018.9
2017-09-02T02:55:16.385Z,1018.9
2017-09-02T02:56:17.748Z,1018.9
2017-09-02T02:57:19.153Z,1018.9
2017-09-02T02:58:20.524Z,1018.9
2017-09-02T02:59:21.935Z,1018.9
2017-09-02T03:00:23.321Z,1018.9
2017-09-02T03:01:24.713Z,1018.9
2017-09-02T03:02:26.080Z,1018.9
2017-09-02T03:03:27.485Z,1018.9
2017-09-02T03:04:28.859Z,1018.9
2017-09-02T03:05:30.264Z,1018.9
2017-09-02T03:06:31.637Z,1018.9
2017-09-02T03:07:33.045Z,1018.9
2017-09-02T03:08:34.430Z,1018.9
2017-09-02T03:09:35.825Z,1018.9
2017-09-02T03:10:37.196Z,1018.9
2017-09-02T03:11:38.614Z,1018.9
2017-09-02T03:12:39.985Z,1018.8
2017-09-02T03:13:41.385Z,1018.9
2017-09-02T03:14:42.756Z,1018.8
2017-09-02T03:15:44.161Z,1018.9
2017-09-02T03:16:45.566Z,1018.9
2017-09-02T03:17:47.063Z,1018.9
2017-09-02T03:18:48.439Z,1018.9
2017-09-02T03:19:49.823Z,1018.9
2017-09-02T03:20:51.197Z,1018.9
2017-09-02T03:21:52.603Z,1018.8
2017-09-02T03:22:53.983Z,1018.8
2017-09-02T03:23:55.383Z,1018.9
2017-09-02T03:24:56.758Z,1018.9
2017-09-02T03:25:58.175Z,1018.9
2017-09-02T03:26:59.537Z,1018.9
2017-09-02T03:28:00.952Z,1018.9
2017-09-02T03:29:02.358Z,1018.9
2017-09-02T03:30:04.747Z,1018.9
2017-09-02T03:31:06.121Z,1018.9
2017-09-02T03:32:07.525Z,1018.9
2017-09-02T03:33:08.901Z,1018.9
2017-09-02T03:34:10.305Z,1018.9
2017-09-02T03:35:11.682Z,1018.9
2017-09-02T03:36:13.086Z,1018.8
2017-09-02T03:37:14.464Z,1018.8
2017-09-02T03:38:15.885Z,1018.8
2017-09-02T03:39:17.255Z,1018.8
2017-09-02T03:40:18.645Z,1018.8
2017-09-02T03:41:20.021Z,1018.8
2017-09-02T03:42:21.429Z,1018.8
2017-09-02T03:43:22.802Z,1018.8
2017-09-02T03:44:24.211Z,1018.8
2017-09-02T03:45:25.590Z,1018.8
2017-09-02T03:46:27.006Z,1018.7
2017-09-02T03:47:28.377Z,1018.7
2017-09-02T03:48:29.766Z,1018.7
2017-09-02T03:49:31.133Z,1018.7
2017-09-02T03:50:32.545Z,1018.7
2017-09-02T03:51:33.918Z,1018.7
2017-09-02T03:52:35.323Z,1018.7
2017-09-02T03:53:36.695Z,1018.7
2017-09-02T03:54:38.100Z,1018.7
2017-09-02T03:55:39.485Z,1018.7
2017-09-02T03:56:40.882Z,1018.6
2017-09-02T03:57:42.264Z,1018.6
2017-09-02T03:58:43.661Z,1018.7
2017-09-02T03:59:45.038Z,1018.6
2017-09-02T04:00:46.446Z,1018.6
2017-09-02T04:01:47.814Z,1018.6
2017-09-02T04:02:49.225Z,1018.7
2017-09-02T04:03:50.597Z,1018.7
2017-09-02T04:04:52.002Z,1018.7
2017-09-02T04:05:53.373Z,1018.7
2017-09-02T04:06:54.780Z,1018.7
2017-09-02T04:07:56.146Z,1018.7
2017-09-02T04:08:57.565Z,1018.6
2017-09-02T04:09:58.964Z,1018.7
2017-09-02T04:11:00.443Z,1018.7
2017-09-02T04:12:01.820Z,1018.7
2017-09-02T04:13:03.220Z,1018.7
2017-09-02T04:14:04.601Z,1018.7
2017-09-02T04:15:06.000Z,1018.7
2017-09-02T04:16:07.371Z,1018.8
2017-09-02T04:17:08.784Z,1018.8
2017-09-02T04:18:10.155Z,1018.7
2017-09-02T04:19:11.562Z,1018.8
2017-09-02T04:20:12.934Z,1018.8
2017-09-02T04:21:14.341Z,1018.8
2017-09-02T04:22:15.726Z,1018.8
2017-09-02T04:23:17.161Z,1018.9
2017-09-02T04:24:18.512Z,1018.8
2017-09-02T04:25:19.902Z,1018.9
2017-09-02T04:26:21.307Z,1018.9
2017-09-02T04:27:22.799Z,1019.0
2017-09-02T04:28:24.169Z,1018.9
2017-09-02T04:29:25.564Z,1018.9
2017-09-02T04:30:26.935Z,1018.9
2017-09-02T04:31:28.341Z,1018.9
2017-09-02T04:32:29.720Z,1019.0
2017-09-02T04:33:31.121Z,1018.9
2017-09-02T04:34:32.493Z,1019.0
2017-09-02T04:35:33.900Z,1019.0
2017-09-02T04:36:35.279Z,1019.0
2017-09-02T04:37:36.728Z,1019.0
2017-09-02T04:38:38.098Z,1019.0
2017-09-02T04:39:39.562Z,1019.0
2017-09-02T04:40:40.954Z,1019.1
2017-09-02T04:41:42.342Z,1019.0
2017-09-02T04:42:43.771Z,1019.0
2017-09-02T04:43:45.233Z,1019.0
2017-09-02T04:44:46.601Z,1018.9
2017-09-02T04:45:48.013Z,1019.0
2017-09-02T04:46:49.388Z,1019.0
2017-09-02T04:47:50.790Z,1019.0
2017-09-02T04:48:52.168Z,1019.0
2017-09-02T04:49:53.567Z,1019.0
2017-09-02T04:50:54.945Z,1018.9
2017-09-02T04:51:56.352Z,1019.0
2017-09-02T04:52:57.737Z,1019.0
2017-09-02T04:53:59.129Z,1019.0
2017-09-02T04:55:00.525Z,1019.0
2017-09-02T04:56:01.998Z,1019.0
2017-09-02T04:57:03.380Z,1019.1
2017-09-02T04:58:04.788Z,1019.0
2017-09-02T04:59:06.164Z,1019.0
2017-09-02T05:00:07.566Z,1019.1
2017-09-02T05:01:08.940Z,1019.1
2017-09-02T05:02:10.347Z,1019.1
2017-09-02T05:03:11.744Z,1019.1
2017-09-02T05:04:13.238Z,1019.2
2017-09-02T05:05:14.614Z,1019.1
2017-09-02T05:06:16.006Z,1019.1
2017-09-02T05:07:17.381Z,1019.1
2017-09-02T05:08:18.788Z,1019.2
2017-09-02T05:09:20.171Z,1019.2
2017-09-02T05:10:21.566Z,1019.2
2017-09-02T05:11:22.972Z,1019.1
2017-09-02T05:12:24.454Z,1019.2
2017-09-02T05:13:25.841Z,1019.1
2017-09-02T05:14:27.235Z,1019.1
2017-09-02T05:15:28.601Z,1019.1
2017-09-02T05:16:30.005Z,1019.1
2017-09-02T05:17:31.385Z,1019.2
2017-09-02T05:18:32.789Z,1019.1
2017-09-02T05:19:34.243Z,1019.2
2017-09-02T05:20:35.669Z,1019.2
2017-09-02T05:21:37.042Z,1019.2
2017-09-02T05:22:38.492Z,1019.2
2017-09-02T05:23:39.874Z,1019.2
2017-09-02T05:24:41.361Z,1019.2
2017-09-02T05:25:42.731Z,1019.2
2017-09-02T05:26:44.212Z,1019.2
2017-09-02T05:27:45.588Z,1019.2
2017-09-02T05:28:47.039Z,1019.2
2017-09-02T05:29:48.571Z,1019.2
2017-09-02T05:30:50.084Z,1019.2
2017-09-02T05:31:51.461Z,1019.2
2017-09-02T05:32:52.895Z,1019.2
2017-09-02T05:33:54.292Z,1019.2
2017-09-02T05:34:55.803Z,1019.2
2017-09-02T05:35:57.193Z,1019.2
2017-09-02T05:36:58.624Z,1019.2
2017-09-02T05:38:00.004Z,1019.1
2017-09-02T05:39:01.468Z,1019.2
2017-09-02T05:40:02.846Z,1019.2
2017-09-02T05:41:04.325Z,1019.2
2017-09-02T05:42:05.810Z,1019.2
2017-09-02T05:43:07.268Z,1019.2
2017-09-02T05:44:08.680Z,1019.2
2017-09-02T05:45:10.199Z,1019.2
2017-09-02T05:46:11.583Z,1019.2
2017-09-02T05:47:13.034Z,1019.3
2017-09-02T05:48:14.424Z,1019.3
2017-09-02T05:49:15.918Z,1019.3
2017-09-02T05:50:17.299Z,1019.3
2017-09-02T05:51:18.703Z,1019.3
2017-09-02T05:52:20.433Z,1019.3
2017-09-02T05:53:21.911Z,1019.4
2017-09-02T05:54:23.309Z,1019.4
2017-09-02T05:55:24.845Z,1019.4
2017-09-02T05:56:26.782Z,1019.4
2017-09-02T05:57:28.159Z,1019.4
2017-09-02T05:58:29.535Z,1019.4
2017-09-02T05:59:30.941Z,1019.4
2017-09-02T06:00:32.321Z,1019.3
2017-09-02T06:01:33.847Z,1019.4
2017-09-02T06:02:35.221Z,1019.4
2017-09-02T06:03:36.719Z,1019.4
2017-09-02T06:04:38.094Z,1019.4
2017-09-02T06:05:39.502Z,1019.4
2017-09-02T06:06:40.878Z,1019.4
2017-09-02T06:07:42.462Z,1019.3
2017-09-02T06:08:43.839Z,1019.3
2017-09-02T06:09:45.255Z,1019.4
2017-09-02T06:10:46.633Z,1019.5
2017-09-02T06:11:48.149Z,1019.6
2017-09-02T06:12:49.531Z,1019.6
2017-09-02T06:13:51.026Z,1019.6
2017-09-02T06:14:52.407Z,1019.6
2017-09-02T06:15:53.910Z,1019.6
2017-09-02T06:16:55.331Z,1019.7
2017-09-02T06:17:56.821Z,1019.7
2017-09-02T06:18:58.237Z,1019.7
2017-09-02T06:19:59.693Z,1019.7
2017-09-02T06:21:01.087Z,1019.7
2017-09-02T06:22:02.546Z,1019.7
2017-09-02T06:23:03.927Z,1019.8
2017-09-02T06:24:05.336Z,1019.9
2017-09-02T06:25:06.742Z,1019.9
2017-09-02T06:26:08.208Z,1019.9
2017-09-02T06:27:09.578Z,1020.0
2017-09-02T06:28:10.984Z,1020.0
2017-09-02T06:29:12.362Z,1020.0
2017-09-02T06:30:13.765Z,1020.1
2017-09-02T06:31:15.185Z,1020.1
2017-09-02T06:32:16.565Z,1020.1
2017-09-02T06:33:17.984Z,1020.1
2017-09-02T06:34:19.521Z,1020.2
2017-09-02T06:35:20.901Z,1020.2
2017-09-02T06:36:22.307Z,1020.2
2017-09-02T06:37:23.687Z,1020.2
2017-09-02T06:38:25.104Z,1020.3
2017-09-02T06:39:26.485Z,1020.3
2017-09-02T06:40:27.966Z,1020.4
2017-09-02T06:41:29.348Z,1020.3
2017-09-02T06:42:30.748Z,1020.4
2017-09-02T06:43:32.249Z,1020.4
2017-09-02T06:44:33.803Z,1020.4
2017-09-02T06:45:35.171Z,1020.5
2017-09-02T06:46:36.611Z,1020.5
2017-09-02T06:47:37.987Z,1020.4
2017-09-02T06:48:39.396Z,1020.3
2017-09-02T06:49:40.777Z,1020.3
2017-09-02T06:50:42.173Z,1020.3
2017-09-02T06:51:43.564Z,1020.4
2017-09-02T06:52:45.052Z,1020.4
2017-09-02T06:53:46.434Z,1020.4
2017-09-02T06:54:48.831Z,1020.5
2017-09-02T06:55:50.210Z,1020.7
2017-09-02T06:56:51.635Z,1020.9
2017-09-02T06:57:53.130Z,1021.0
2017-09-02T06:58:55.213Z,1021.0
2017-09-02T06:59:56.580Z,1021.1
2017-09-02T07:00:58.057Z,1021.3
2017-09-02T07:01:59.436Z,1021.4
2017-09-02T07:03:00.924Z,1021.4
2017-09-02T07:04:02.299Z,1021.3
2017-09-02T07:05:03.815Z,1021.2
2017-09-02T07:06:05.192Z,1021.1
2017-09-02T07:07:06.660Z,1021.2
2017-09-02T07:08:08.038Z,1021.3
2017-09-02T07:09:09.442Z,1021.3
2017-09-02T07:10:10.822Z,1021.3
2017-09-02T07:11:12.731Z,1021.4
2017-09-02T07:12:14.211Z,1021.4
2017-09-02T07:13:15.618Z,1021.5
2017-09-02T07:14:17.024Z,1021.1
2017-09-02T07:15:18.497Z,1020.6
2017-09-02T07:16:19.879Z,1020.2
2017-09-02T07:17:21.335Z,1020.2
2017-09-02T07:18:22.716Z,1020.3
2017-09-02T07:19:24.169Z,1020.7
2017-09-02T07:20:25.586Z,1020.3
2017-09-02T07:21:27.055Z,1020.2
2017-09-02T07:22:28.441Z,1020.1
2017-09-02T07:23:29.926Z,1020.2
2017-09-02T07:24:31.303Z,1020.2
2017-09-02T07:25:32.702Z,1020.4
2017-09-02T07:26:34.082Z,1020.8
2017-09-02T07:27:35.554Z,1020.5
2017-09-02T07:28:36.938Z,1020.9
2017-09-02T07:29:38.379Z,1020.8
2017-09-02T07:30:39.761Z,1021.0
2017-09-02T07:31:41.263Z,1022.4
2017-09-02T07:32:42.652Z,1022.6
2017-09-02T07:33:44.129Z,1021.3
2017-09-02T07:34:45.528Z,1020.5
2017-09-02T07:35:47.010Z,1020.5
2017-09-02T07:36:49.138Z,1020.4
2017-09-02T07:37:50.663Z,1020.4
2017-09-02T07:38:52.202Z,1020.3
2017-09-02T07:39:53.587Z,1020.2
2017-09-02T07:40:54.979Z,1020.3
2017-09-02T07:41:56.368Z,1020.3
2017-09-02T07:42:57.797Z,1020.3
2017-09-02T07:43:59.176Z,1020.9
2017-09-02T07:45:00.553Z,1020.6
2017-09-02T07:46:01.939Z,1020.3
2017-09-02T07:47:03.323Z,1020.3
2017-09-02T07:48:04.712Z,1020.2
2017-09-02T07:49:06.123Z,1020.3
2017-09-02T07:50:07.511Z,1020.7
2017-09-02T07:51:08.888Z,1020.3
2017-09-02T07:52:10.523Z,1021.0
2017-09-02T07:53:11.903Z,1020.9
2017-09-02T07:54:13.411Z,1020.6
2017-09-02T07:55:14.837Z,1020.4
2017-09-02T07:56:16.246Z,1020.4
2017-09-02T07:57:17.628Z,1020.9
2017-09-02T07:58:19.009Z,1021.1
2017-09-02T07:59:20.393Z,1021.7
2017-09-02T08:00:21.785Z,1021.3
2017-09-02T08:01:23.186Z,1020.6
2017-09-02T08:02:24.574Z,1020.6
2017-09-02T08:03:26.024Z,1020.9
2017-09-02T08:04:27.421Z,1021.7
2017-09-02T08:05:28.795Z,1021.8
2017-09-02T08:06:30.267Z,1021.9
2017-09-02T08:07:31.662Z,1022.1
2017-09-02T08:08:33.054Z,1022.3
2017-09-02T08:09:34.437Z,1021.0
2017-09-02T08:10:35.822Z,1020.3
2017-09-02T08:11:37.210Z,1020.9
2017-09-02T08:12:38.618Z,1021.3
2017-09-02T08:13:40.003Z,1020.4
2017-09-02T08:14:41.399Z,1020.2
2017-09-02T08:15:42.780Z,1020.3
2017-09-02T08:16:44.167Z,1020.6
2017-09-02T08:17:45.569Z,1021.0
2017-09-02T08:18:46.985Z,1021.6
2017-09-02T08:19:48.357Z,1022.5
2017-09-02T08:20:49.773Z,1022.4
2017-09-02T08:21:51.155Z,1022.3
2017-09-02T08:22:52.542Z,1022.2
2017-09-02T08:23:53.931Z,1022.1
2017-09-02T08:24:55.325Z,1021.3
2017-09-02T08:25:56.766Z,1020.7
2017-09-02T08:26:58.155Z,1020.7
2017-09-02T08:27:59.554Z,1021.6
2017-09-02T08:29:00.944Z,1021.7
2017-09-02T08:30:02.328Z,1021.6
2017-09-02T08:31:03.736Z,1021.4
2017-09-02T08:32:05.120Z,1021.6
2017-09-02T08:33:06.513Z,1021.6
2017-09-02T08:34:07.895Z,1021.8
2017-09-02T08:35:09.283Z,1021.5
2017-09-02T08:36:10.674Z,1021.4
2017-09-02T08:37:12.068Z,1021.5
2017-09-02T08:38:13.457Z,1021.3
2017-09-02T08:39:14.912Z,1021.1
2017-09-02T08:40:16.320Z,1020.6
2017-09-02T08:41:17.807Z,1020.6
2017-09-02T08:42:19.227Z,1021.2
2017-09-02T08:43:20.682Z,1021.5
2017-09-02T08:44:22.068Z,1021.0
2017-09-02T08:45:23.459Z,1021.2
2017-09-02T08:46:24.880Z,1021.1
2017-09-02T08:47:26.341Z,1021.6
2017-09-02T08:48:27.766Z,1021.6
2017-09-02T08:49:29.226Z,1021.6
2017-09-02T08:50:30.611Z,1021.5
2017-09-02T08:51:32.107Z,1021.6
2017-09-02T08:52:33.515Z,1021.5
2017-09-02T08:53:35.017Z,1021.5
2017-09-02T08:54:36.493Z,1021.4
2017-09-02T08:55:37.981Z,1021.0
2017-09-02T08:56:39.377Z,1021.6
2017-09-02T08:57:41.097Z,1021.6
2017-09-02T08:58:42.499Z,1021.1
2017-09-02T08:59:43.940Z,1020.3
2017-09-02T09:00:45.328Z,1020.3
2017-09-02T09:01:46.831Z,1020.2
2017-09-02T09:02:48.215Z,1020.7
2017-09-02T09:03:49.796Z,1021.5
2017-09-02T09:04:51.208Z,1021.4
2017-09-02T09:05:52.732Z,1021.2
2017-09-02T09:06:54.172Z,1020.3
2017-09-02T09:07:55.608Z,1020.3
2017-09-02T09:08:57.015Z,1021.2
2017-09-02T09:09:58.451Z,1020.9
2017-09-02T09:11:00.030Z,1020.3
2017-09-02T09:12:01.475Z,1021.6
2017-09-02T09:13:02.871Z,1021.5
2017-09-02T09:14:04.328Z,1021.3
2017-09-02T09:15:05.741Z,1021.3
2017-09-02T09:16:07.261Z,1020.3
2017-09-02T09:17:08.645Z,1020.3
2017-09-02T09:18:10.086Z,1020.7
2017-09-02T09:19:11.469Z,1020.5
2017-09-02T09:20:12.859Z,1021.2
2017-09-02T09:21:14.276Z,1020.2
2017-09-02T09:22:15.747Z,1020.6
2017-09-02T09:23:17.132Z,1020.8
2017-09-02T09:24:18.630Z,1020.9
2017-09-02T09:25:20.010Z,1019.9
2017-09-02T09:26:21.521Z,1019.9
2017-09-02T09:27:22.994Z,1021.2
2017-09-02T09:28:24.704Z,1021.2
2017-09-02T09:29:26.151Z,1021.2
2017-09-02T09:30:27.580Z,1021.2
2017-09-02T09:31:29.030Z,1021.3
2017-09-02T09:32:30.477Z,1021.2
2017-09-02T09:33:31.861Z,1021.0
2017-09-02T09:34:33.451Z,1020.7
2017-09-02T09:35:34.954Z,1021.2
2017-09-02T09:36:36.436Z,1021.0
2017-09-02T09:37:37.958Z,1021.2
2017-09-02T09:38:39.418Z,1021.1
2017-09-02T09:39:40.803Z,1021.2
2017-09-02T09:40:42.314Z,1021.2
2017-09-02T09:41:43.697Z,1021.2
2017-09-02T09:42:45.181Z,1021.2
2017-09-02T09:43:46.583Z,1021.2
2017-09-02T09:44:48.087Z,1021.1
2017-09-02T09:45:49.466Z,1021.2
2017-09-02T09:46:50.948Z,1021.0
2017-09-02T09:47:52.329Z,1021.1
2017-09-02T09:48:53.993Z,1021.1
2017-09-02T09:49:55.435Z,1021.1
2017-09-02T09:50:56.912Z,1021.2
2017-09-02T09:51:58.300Z,1021.2
2017-09-02T09:52:59.795Z,1021.2
2017-09-02T09:54:01.184Z,1021.3
2017-09-02T09:55:02.711Z,1020.7
2017-09-02T09:56:04.098Z,1020.7
2017-09-02T09:57:05.557Z,1020.9
2017-09-02T09:58:07.019Z,1020.6
2017-09-02T09:59:08.441Z,1020.8
2017-09-02T10:00:09.876Z,1020.7
2017-09-02T10:01:11.327Z,1020.1
2017-09-02T10:02:12.879Z,1020.7
2017-09-02T10:03:14.309Z,1020.8
2017-09-02T10:04:15.758Z,1020.4
2017-09-02T10:05:17.199Z,1020.4
2017-09-02T10:06:18.589Z,1020.2
2017-09-02T10:07:20.088Z,1020.2
2017-09-02T10:08:21.474Z,1020.2
2017-09-02T10:09:22.983Z,1020.2
2017-09-02T10:10:24.339Z,1020.2
2017-09-02T10:11:25.917Z,1020.1
2017-09-02T10:12:27.373Z,1020.1
2017-09-02T10:13:28.816Z,1020.1
2017-09-02T10:14:30.203Z,1020.1
2017-09-02T10:15:31.734Z,1020.1
2017-09-02T10:16:33.130Z,1020.1
2017-09-02T10:17:34.754Z,1020.1
2017-09-02T10:18:36.182Z,1019.4
2017-09-02T10:19:37.682Z,1019.4
2017-09-02T10:20:39.103Z,1020.0
2017-09-02T10:21:40.554Z,1020.0
2017-09-02T10:22:41.935Z,1020.0
2017-09-02T10:23:43.428Z,1020.0
2017-09-02T10:24:44.838Z,1020.0
2017-09-02T10:25:46.444Z,1020.0
2017-09-02T10:26:47.878Z,1020.0
2017-09-02T10:27:49.301Z,1020.0
2017-09-02T10:28:51.113Z,1020.0
2017-09-02T10:29:52.593Z,1020.2
2017-09-02T10:30:53.994Z,1020.3
2017-09-02T10:31:55.473Z,1020.2
2017-09-02T10:32:56.862Z,1020.2
2017-09-02T10:33:58.369Z,1020.1
2017-09-02T10:34:59.756Z,1020.1
2017-09-02T10:36:01.240Z,1020.1
2017-09-02T10:37:02.627Z,1020.1
2017-09-02T10:38:04.120Z,1020.1
2017-09-02T10:39:06.035Z,1020.2
2017-09-02T10:40:07.917Z,1020.4
2017-09-02T10:41:09.332Z,1020.7
2017-09-02T10:42:10.812Z,1020.8
2017-09-02T10:43:12.201Z,1021.0
2017-09-02T10:44:13.691Z,1019.9
2017-09-02T10:45:15.137Z,1019.4
2017-09-02T10:46:16.580Z,1019.3
2017-09-02T10:47:17.966Z,1019.3
2017-09-02T10:48:19.503Z,1019.4
2017-09-02T10:49:20.884Z,1020.3
2017-09-02T10:50:22.412Z,1020.2
2017-09-02T10:51:23.773Z,1020.1
2017-09-02T10:52:25.221Z,1020.1
2017-09-02T10:53:26.608Z,1020.1
2017-09-02T10:54:28.108Z,1020.2
2017-09-02T10:55:29.497Z,1020.2
2017-09-02T10:56:30.975Z,1020.2
2017-09-02T10:57:32.390Z,1020.4
2017-09-02T10:58:33.930Z,1020.4
2017-09-02T10:59:35.322Z,1020.4
2017-09-02T11:00:36.743Z,1020.4
2017-09-02T11:01:38.134Z,1020.6
2017-09-02T11:02:39.627Z,1020.5
2017-09-02T11:03:41.049Z,1020.4
2017-09-02T11:04:42.518Z,1019.0
2017-09-02T11:05:44.000Z,1019.0
2017-09-02T11:06:45.529Z,1019.0
2017-09-02T11:07:46.916Z,1019.0
2017-09-02T11:08:48.502Z,1019.0
2017-09-02T11:09:50.001Z,1018.9
2017-09-02T11:10:51.460Z,1019.0
2017-09-02T11:11:52.870Z,1019.3
2017-09-02T11:12:54.342Z,1019.2
2017-09-02T11:13:55.737Z,1019.1
2017-09-02T11:14:57.128Z,1019.1
2017-09-02T11:15:58.617Z,1019.2
2017-09-02T11:17:00.016Z,1019.2
2017-09-02T11:18:02.467Z,1019.2
2017-09-02T11:19:03.864Z,1019.2
2017-09-02T11:20:05.358Z,1019.2
2017-09-02T11:21:06.746Z,1019.2
2017-09-02T11:22:08.255Z,1019.2
2017-09-02T11:23:09.646Z,1019.1
2017-09-02T11:24:11.123Z,1019.2
2017-09-02T11:25:12.505Z,1019.2
2017-09-02T11:26:14.019Z,1019.3
2017-09-02T11:27:15.399Z,1019.2
2017-09-02T11:28:16.896Z,1019.4
2017-09-02T11:29:18.313Z,1019.2
2017-09-02T11:30:19.767Z,1019.3
2017-09-02T11:31:21.189Z,1019.3
2017-09-02T11:32:22.648Z,1019.4
2017-09-02T11:33:24.051Z,1019.3
2017-09-02T11:34:25.540Z,1019.4
2017-09-02T11:35:27.004Z,1019.2
2017-09-02T11:36:28.419Z,1019.2
2017-09-02T11:37:29.792Z,1019.1
2017-09-02T11:38:31.289Z,1019.1
2017-09-02T11:39:32.692Z,1019.2
2017-09-02T11:40:34.218Z,1019.1
2017-09-02T11:41:35.699Z,1019.1
2017-09-02T11:42:37.187Z,1019.2
2017-09-02T11:43:38.615Z,1019.4
2017-09-02T11:44:40.059Z,1019.3
2017-09-02T11:45:41.445Z,1019.3
2017-09-02T11:46:42.922Z,1019.3
2017-09-02T11:47:44.330Z,1019.3
2017-09-02T11:48:45.845Z,1019.2
2017-09-02T11:49:47.221Z,1019.2
2017-09-02T11:50:48.889Z,1019.1
2017-09-02T11:51:50.282Z,1019.1
2017-09-02T11:52:51.776Z,1019.1
2017-09-02T11:53:53.165Z,1019.1
2017-09-02T11:54:54.729Z,1019.1
2017-09-02T11:55:56.191Z,1019.1
2017-09-02T11:56:57.636Z,1019.0
2017-09-02T11:57:59.145Z,1019.0
2017-09-02T11:59:00.695Z,1019.0
2017-09-02T12:00:02.089Z,1019.0
2017-09-02T12:01:03.623Z,1019.1
2017-09-02T12:02:05.008Z,1019.0
2017-09-02T12:03:06.729Z,1019.0
2017-09-02T12:04:08.090Z,1019.1
2017-09-02T12:05:09.573Z,1019.0
2017-09-02T12:06:10.959Z,1019.1
2017-09-02T12:07:12.454Z,1019.0
2017-09-02T12:08:13.937Z,1019.0
2017-09-02T12:09:15.486Z,1018.9
2017-09-02T12:10:17.030Z,1018.9
2017-09-02T12:11:18.594Z,1018.9
2017-09-02T12:12:19.980Z,1018.9
2017-09-02T12:13:21.434Z,1018.9
2017-09-02T12:14:22.898Z,1018.9
2017-09-02T12:15:24.393Z,1018.9
2017-09-02T12:16:25.779Z,1018.9
2017-09-02T12:17:27.281Z,1018.9
2017-09-02T12:18:28.668Z,1018.9
2017-09-02T12:19:30.157Z,1018.9
2017-09-02T12:20:31.547Z,1018.9
2017-09-02T12:21:33.042Z,1018.9
2017-09-02T12:22:34.427Z,1018.9
2017-09-02T12:23:35.922Z,1018.8
2017-09-02T12:24:37.318Z,1018.7
2017-09-02T12:25:38.805Z,1018.8
2017-09-02T12:26:40.188Z,1018.8
2017-09-02T12:27:41.689Z,1018.9
2017-09-02T12:28:43.083Z,1018.9
2017-09-02T12:29:44.568Z,1018.9
2017-09-02T12:30:46.031Z,1018.9
2017-09-02T12:31:47.449Z,1018.8
2017-09-02T12:32:48.834Z,1018.8
2017-09-02T12:33:50.332Z,1018.7
2017-09-02T12:34:51.717Z,1018.8
2017-09-02T12:35:53.228Z,1018.8
2017-09-02T12:36:54.619Z,1018.9
2017-09-02T12:37:56.094Z,1018.9
2017-09-02T12:38:57.474Z,1018.9
2017-09-02T12:39:58.976Z,1018.9
2017-09-02T12:41:00.365Z,1018.9
2017-09-02T12:42:01.861Z,1018.9
2017-09-02T12:43:03.248Z,1018.9
2017-09-02T12:44:04.742Z,1018.8
2017-09-02T12:45:06.147Z,1018.7
2017-09-02T12:46:07.624Z,1018.7